Time;durP1;ratioP1;P1;durP2;ratioP2;P2;SDS_P1;SDS_P2;PMS_P1;PMS_P2;Temp;Humidity;BMP_temperature;BMP_pressure;BME280_temperature;BME280_humidity;BME280_pressure;Samples;Min_cycle;Max_cycle;Signal;HPM_P1;HPM_P2
2023/05/28 00:00:10;;;;;;;;;;;;;;;;;;5034837;28;20329;-26
2023/05/28 00:02:36;;;;;;;;;;;;;;;;;;5034737;28;19916;-25
2023/05/28 00:05:02;;;;;;;;;;;;;;;;;;5034451;28;19978;-26
2023/05/28 00:07:28;;;;;;;;;;;;;;;;;;5034839;28;19909;-25
2023/05/28 00:09:55;;;;;;;;;;;;;;;;;;5034503;28;20340;-27
2023/05/28 00:12:21;;;;;;;;;;;;;;;;;;5034506;28;19909;-25
2023/05/28 00:14:47;;;;;;;;;;;;;;;;;;5034459;28;19955;-25
2023/05/28 00:17:13;;;;;;;;;;;;;;;;;;5034476;28;19996;-24
2023/05/28 00:19:39;;;;;;;;;;;;;;;;;;5034740;28;20346;-24
2023/05/28 00:22:05;;;;;;;;;;;;;;;;;;5034415;28;19944;-27
2023/05/28 00:24:31;;;;;;;;;;;;;;;;;;5034312;28;19961;-26
2023/05/28 00:26:57;;;;;;;;;;;;;;;;;;5034320;28;19913;-24
2023/05/28 00:29:26;;;;;;;;;;;;;;;;;;5034384;28;19910;-25
2023/05/28 00:31:55;;;;;;;;;;;;;;;;;;5034302;28;20004;-26
2023/05/28 00:34:21;;;;;;;;;;;;;;;;;;5036788;28;20328;-25
2023/05/28 00:36:47;;;;;;;;;;;;;;;;;;5038390;28;19999;-25
2023/05/28 00:39:13;;;;;;;;;;;;;;;;;;5038102;28;20374;-27
2023/05/28 00:41:40;;;;;;;;;;;;;;;;;;5038300;28;19917;-29
2023/05/28 00:44:08;;;;;;;;;;;;;;;;;;5037849;28;19913;-23
2023/05/28 00:46:34;;;;;;;;;;;;;;;;;;5037943;28;19910;-24
2023/05/28 00:49:00;;;;;;;;;;;;;;;;;;5037899;28;19928;-26
2023/05/28 00:51:26;;;;;;;;;;;;;;;;;;5037943;28;19909;-25
2023/05/28 00:53:52;;;;;;;;;;;;;;;;;;5038063;28;19996;-25
2023/05/28 00:56:18;;;;;;;;;;;;;;;;;;5038100;28;19960;-27
2023/05/28 00:58:48;;;;;;;;;;;;;;;;;;5037729;28;19963;-23
2023/05/28 01:01:14;;;;;;;;;;;;;;;;;;5038025;28;19921;-24
2023/05/28 01:03:39;;;;;;;;;;;;;;;;;;5037837;28;19971;-22
2023/05/28 01:06:07;;;;;;;;;;;;;;;;;;5037699;28;19960;-25
2023/05/28 01:08:33;;;;;;;;;;;;;;;;;;5037941;28;20335;-30
2023/05/28 01:10:59;;;;;;;;;;;;;;;;;;5037839;28;19932;-25
2023/05/28 01:13:25;;;;;;;;;;;;;;;;;;5037647;28;19909;-25
2023/05/28 01:15:51;;;;;;;;;;;;;;;;;;5037353;28;19925;-25
2023/05/28 01:18:17;;;;;;;;;;;;;;;;;;5037424;28;19970;-25
2023/05/28 01:20:43;;;;;;;;;;;;;;;;;;5037308;28;19968;-27
2023/05/28 01:23:09;;;;;;;;;;;;;;;;;;5037244;28;19909;-24
2023/05/28 01:25:37;;;;;;;;;;;;;;;;;;5037095;28;19920;-26
2023/05/28 01:28:03;;;;;;;;;;;;;;;;;;5037163;28;19909;-27
2023/05/28 01:30:29;;;;;;;;;;;;;;;;;;5037149;28;19916;-27
2023/05/28 01:32:55;;;;;;;;;;;;;;;;;;5037099;28;19963;-24
2023/05/28 01:35:21;;;;;;;;;;;;;;;;;;5037121;28;19909;-30
2023/05/28 01:37:47;;;;;;;;;;;;;;;;;;5037030;28;19923;-27
2023/05/28 01:40:14;;;;;;;;;;;;;;;;;;5036965;28;19909;-25
2023/05/28 01:42:40;;;;;;;;;;;;;;;;;;5036890;28;19919;-27
2023/05/28 01:45:06;;;;;;;;;;;;;;;;;;5036186;28;20000;-27
2023/05/28 01:47:32;;;;;;;;;;;;;;;;;;5036374;28;19909;-26
2023/05/28 01:49:57;;;;;;;;;;;;;;;;;;5036814;28;20252;-23
2023/05/28 01:52:23;;;;;;;;;;;;;;;;;;5036948;28;20328;-25
2023/05/28 01:54:49;;;;;;;;;;;;;;;;;;5036937;28;19913;-25
2023/05/28 01:57:15;;;;;;;;;;;;;;;;;;5036707;28;20256;-25
2023/05/28 01:59:41;;;;;;;;;;;;;;;;;;5036606;28;19909;-25
2023/05/28 02:02:07;;;;;;;;;;;;;;;;;;5036787;28;19913;-22
2023/05/28 02:04:33;;;;;;;;;;;;;;;;;;5036452;28;19964;-24
2023/05/28 02:06:59;;;;;;;;;;;;;;;;;;5036758;28;19909;-28
2023/05/28 02:09:25;;;;;;;;;;;;;;;;;;5036557;28;19953;-23
2023/05/28 02:11:52;;;;;;;;;;;;;;;;;;5036607;28;19967;-24
2023/05/28 02:14:18;;;;;;;;;;;;;;;;;;5036334;28;19913;-24
2023/05/28 02:16:44;;;;;;;;;;;;;;;;;;5036292;28;19909;-29
2023/05/28 02:19:09;;;;;;;;;;;;;;;;;;5035249;28;19928;-27
2023/05/28 02:21:36;;;;;;;;;;;;;;;;;;5036214;28;19968;-23
2023/05/28 02:24:01;;;;;;;;;;;;;;;;;;5036309;28;19925;-27
2023/05/28 02:26:28;;;;;;;;;;;;;;;;;;5036064;28;20363;-25
2023/05/28 02:28:54;;;;;;;;;;;;;;;;;;5036109;28;20340;-24
2023/05/28 02:31:20;;;;;;;;;;;;;;;;;;5036285;28;20007;-26
2023/05/28 02:33:46;;;;;;;;;;;;;;;;;;5035867;28;20337;-25
2023/05/28 02:36:12;;;;;;;;;;;;;;;;;;5036191;28;19920;-26
2023/05/28 02:38:38;;;;;;;;;;;;;;;;;;5035833;28;19909;-25
2023/05/28 02:41:04;;;;;;;;;;;;;;;;;;5035756;28;19963;-22
2023/05/28 02:43:30;;;;;;;;;;;;;;;;;;5035632;28;19909;-24
2023/05/28 02:45:56;;;;;;;;;;;;;;;;;;5035978;28;19916;-26
2023/05/28 02:48:22;;;;;;;;;;;;;;;;;;5035642;28;19966;-27
2023/05/28 02:50:48;;;;;;;;;;;;;;;;;;5035924;28;19917;-26
2023/05/28 02:53:14;;;;;;;;;;;;;;;;;;5035574;28;19921;-24
2023/05/28 02:55:40;;;;;;;;;;;;;;;;;;5035892;28;19909;-25
2023/05/28 02:58:06;;;;;;;;;;;;;;;;;;5035240;28;19940;-23
2023/05/28 03:00:33;;;;;;;;;;;;;;;;;;5036021;28;19963;-29
2023/05/28 03:02:59;;;;;;;;;;;;;;;;;;5035702;28;20008;-25
2023/05/28 03:05:25;;;;;;;;;;;;;;;;;;5035146;28;19979;-25
2023/05/28 03:07:51;;;;;;;;;;;;;;;;;;5035609;28;19909;-26
2023/05/28 03:10:17;;;;;;;;;;;;;;;;;;5035266;28;19916;-25
2023/05/28 03:12:43;;;;;;;;;;;;;;;;;;5035103;28;19920;-24
2023/05/28 03:15:09;;;;;;;;;;;;;;;;;;5035218;28;19913;-26
2023/05/28 03:17:34;;;;;;;;;;;;;;;;;;5035139;28;19910;-23
2023/05/28 03:20:00;;;;;;;;;;;;;;;;;;5035096;28;19910;-26
2023/05/28 03:22:26;;;;;;;;;;;;;;;;;;5035066;28;19999;-25
2023/05/28 03:24:52;;;;;;;;;;;;;;;;;;5034988;28;19945;-23
2023/05/28 03:27:18;;;;;;;;;;;;;;;;;;5035310;28;19909;-24
2023/05/28 03:29:44;;;;;;;;;;;;;;;;;;5035006;28;20387;-24
2023/05/28 03:32:10;;;;;;;;;;;;;;;;;;5034898;28;19909;-27
2023/05/28 03:34:36;;;;;;;;;;;;;;;;;;5035655;28;19916;-29
2023/05/28 03:37:02;;;;;;;;;;;;;;;;;;5034935;28;20306;-23
2023/05/28 03:39:28;;;;;;;;;;;;;;;;;;5034947;28;19909;-27
2023/05/28 03:41:54;;;;;;;;;;;;;;;;;;5034768;28;19920;-26
2023/05/28 03:44:20;;;;;;;;;;;;;;;;;;5035022;28;19979;-27
2023/05/28 03:46:46;;;;;;;;;;;;;;;;;;5034621;28;20324;-24
2023/05/28 03:49:12;;;;;;;;;;;;;;;;;;5035041;28;20003;-24
2023/05/28 03:51:38;;;;;;;;;;;;;;;;;;5034714;28;19916;-23
2023/05/28 03:54:04;;;;;;;;;;;;;;;;;;5034566;28;19944;-24
2023/05/28 03:56:33;;;;;;;;;;;;;;;;;;5034622;28;19992;-23
2023/05/28 03:58:59;;;;;;;;;;;;;;;;;;5034567;28;19909;-28
2023/05/28 04:01:25;;;;;;;;;;;;;;;;;;5034850;28;20001;-28
2023/05/28 04:03:51;;;;;;;;;;;;;;;;;;5034695;28;20024;-24
2023/05/28 04:06:17;;;;;;;;;;;;;;;;;;5034421;28;19972;-27
2023/05/28 04:08:43;;;;;;;;;;;;;;;;;;5035257;28;19909;-26
2023/05/28 04:11:09;;;;;;;;;;;;;;;;;;5038615;28;19909;-26
2023/05/28 04:13:35;;;;;;;;;;;;;;;;;;5038808;28;19909;-24
2023/05/28 04:16:01;;;;;;;;;;;;;;;;;;5038562;28;19944;-29
2023/05/28 04:18:27;;;;;;;;;;;;;;;;;;5038524;28;19913;-26
2023/05/28 04:20:53;;;;;;;;;;;;;;;;;;5038715;28;19909;-23
2023/05/28 04:23:19;;;;;;;;;;;;;;;;;;5038381;28;20224;-23
2023/05/28 04:25:45;;;;;;;;;;;;;;;;;;5038334;28;20371;-23
2023/05/28 04:28:11;;;;;;;;;;;;;;;;;;5038619;28;20403;-26
2023/05/28 04:30:37;;;;;;;;;;;;;;;;;;5038367;28;19939;-27
2023/05/28 04:33:03;;;;;;;;;;;;;;;;;;5038172;28;20007;-26
2023/05/28 04:35:29;;;;;;;;;;;;;;;;;;5038171;28;19910;-27
2023/05/28 04:37:55;;;;;;;;;;;;;;;;;;5038156;28;19944;-24
2023/05/28 04:40:21;;;;;;;;;;;;;;;;;;5038128;28;19963;-29
2023/05/28 04:42:53;;;;;;;;;;;;;;;;;;5038019;28;19913;-24
2023/05/28 04:45:19;;;;;;;;;;;;;;;;;;5037921;28;19913;-27
2023/05/28 04:47:45;;;;;;;;;;;;;;;;;;5038041;28;19916;-25
2023/05/28 04:50:11;;;;;;;;;;;;;;;;;;5037950;28;19909;-25
2023/05/28 04:52:37;;;;;;;;;;;;;;;;;;5038446;28;19924;-27
2023/05/28 04:55:04;;;;;;;;;;;;;;;;;;5037847;28;20328;-26
2023/05/28 04:57:30;;;;;;;;;;;;;;;;;;5038426;28;19916;-27
2023/05/28 04:59:56;;;;;;;;;;;;;;;;;;5037817;28;20000;-25
2023/05/28 05:02:23;;;;;;;;;;;;;;;;;;5037633;28;19963;-24
2023/05/28 05:04:49;;;;;;;;;;;;;;;;;;5037611;28;19924;-28
2023/05/28 05:07:15;;;;;;;;;;;;;;;;;;5037824;28;19909;-26
2023/05/28 05:09:42;;;;;;;;;;;;;;;;;;5037800;28;20243;-23
2023/05/28 05:12:07;;;;;;;;;;;;;;;;;;5037394;28;19923;-28
2023/05/28 05:14:33;;;;;;;;;;;;;;;;;;5037441;28;19996;-28
2023/05/28 05:16:59;;;;;;;;;;;;;;;;;;5037435;28;19909;-24
2023/05/28 05:19:25;;;;;;;;;;;;;;;;;;5036368;28;19940;-26
2023/05/28 05:21:52;;;;;;;;;;;;;;;;;;5037223;28;19910;-25
2023/05/28 05:24:17;;;;;;;;;;;;;;;;;;5037208;28;20340;-25
2023/05/28 05:26:43;;;;;;;;;;;;;;;;;;5037544;28;19919;-24
2023/05/28 05:29:09;;;;;;;;;;;;;;;;;;5037200;28;19956;-27
2023/05/28 05:31:35;;;;;;;;;;;;;;;;;;5037156;28;19944;-25
2023/05/28 05:34:01;;;;;;;;;;;;;;;;;;5037072;28;19917;-26
2023/05/28 05:36:27;;;;;;;;;;;;;;;;;;5037062;28;19921;-27
2023/05/28 05:38:53;;;;;;;;;;;;;;;;;;5037063;28;19920;-27
2023/05/28 05:41:21;;;;;;;;;;;;;;;;;;5036960;28;19915;-28
2023/05/28 05:43:47;;;;;;;;;;;;;;;;;;5036731;28;19920;-24
2023/05/28 05:46:13;;;;;;;;;;;;;;;;;;5037150;28;20003;-27
2023/05/28 05:48:38;;;;;;;;;;;;;;;;;;5036886;28;19931;-27
2023/05/28 05:51:06;;;;;;;;;;;;;;;;;;5037075;28;20297;-30
2023/05/28 05:53:31;;;;;;;;;;;;;;;;;;5036721;28;19992;-28
2023/05/28 05:55:58;;;;;;;;;;;;;;;;;;5036965;28;19941;-25
2023/05/28 05:58:23;;;;;;;;;;;;;;;;;;5036736;28;19913;-24
2023/05/28 06:00:50;;;;;;;;;;;;;;;;;;5036858;28;20194;-29
2023/05/28 06:03:16;;;;;;;;;;;;;;;;;;5036667;28;19913;-25
2023/05/28 06:05:42;;;;;;;;;;;;;;;;;;5036327;28;20047;-24
2023/05/28 06:08:08;;;;;;;;;;;;;;;;;;5036508;28;19914;-26
2023/05/28 06:10:34;;;;;;;;;;;;;;;;;;5036745;28;19909;-26
2023/05/28 06:13:03;;;;;;;;;;;;;;;;;;5036456;28;20264;-28
2023/05/28 06:15:31;;;;;;;;;;;;;;;;;;5036667;28;19909;-26
2023/05/28 06:17:57;;;;;;;;;;;;;;;;;;5036334;28;19920;-29
2023/05/28 06:20:22;;;;;;;;;;;;;;;;;;5036230;28;19909;-25
2023/05/28 06:22:48;;;;;;;;;;;;;;;;;;5036096;28;19920;-33
2023/05/28 06:25:15;;;;;;;;;;;;;;;;;;5036040;28;19913;-28
2023/05/28 06:27:41;;;;;;;;;;;;;;;;;;5036067;28;19991;-26
2023/05/28 06:30:07;;;;;;;;;;;;;;;;;;5036029;28;19917;-26
2023/05/28 06:32:33;;;;;;;;;;;;;;;;;;5035348;28;19920;-28
2023/05/28 06:34:59;;;;;;;;;;;;;;;;;;5035994;28;20004;-25
2023/05/28 06:37:25;;;;;;;;;;;;;;;;;;5035988;28;19932;-27
2023/05/28 06:39:51;;;;;;;;;;;;;;;;;;5035978;28;19963;-30
2023/05/28 06:42:17;;;;;;;;;;;;;;;;;;5035842;28;19983;-27
2023/05/28 06:44:43;;;;;;;;;;;;;;;;;;5035777;28;20225;-24
2023/05/28 06:47:08;;;;;;;;;;;;;;;;;;5035812;28;20259;-23
2023/05/28 06:49:35;;;;;;;;;;;;;;;;;;5035780;28;20011;-22
2023/05/28 06:52:01;;;;;;;;;;;;;;;;;;5035878;28;19909;-26
2023/05/28 06:54:27;;;;;;;;;;;;;;;;;;5035628;28;20209;-24
2023/05/28 06:56:53;;;;;;;;;;;;;;;;;;5035623;28;20280;-24
2023/05/28 06:59:18;;;;;;;;;;;;;;;;;;5035520;28;20318;-26
2023/05/28 07:01:45;;;;;;;;;;;;;;;;;;5035475;28;19909;-31
2023/05/28 07:04:11;;;;;;;;;;;;;;;;;;5034165;28;20344;-26
2023/05/28 07:06:37;;;;;;;;;;;;;;;;;;5035420;28;19909;-25
2023/05/28 07:09:03;;;;;;;;;;;;;;;;;;5035676;28;19920;-27
2023/05/28 07:11:29;;;;;;;;;;;;;;;;;;5035569;28;19909;-26
2023/05/28 07:13:55;;;;;;;;;;;;;;;;;;5035137;28;19909;-23
2023/05/28 07:16:21;;;;;;;;;;;;;;;;;;5035212;28;19917;-25
2023/05/28 07:18:47;;;;;;;;;;;;;;;;;;5034270;28;19909;-23
2023/05/28 07:21:13;;;;;;;;;;;;;;;;;;5035154;28;19981;-24
2023/05/28 07:23:39;;;;;;;;;;;;;;;;;;5035008;28;19916;-26
2023/05/28 07:26:05;;;;;;;;;;;;;;;;;;5035363;28;19909;-28
2023/05/28 07:28:31;;;;;;;;;;;;;;;;;;5035125;28;19920;-27
2023/05/28 07:30:57;;;;;;;;;;;;;;;;;;5035318;28;19947;-25
2023/05/28 07:33:23;;;;;;;;;;;;;;;;;;5035195;28;19909;-25
2023/05/28 07:35:49;;;;;;;;;;;;;;;;;;5034967;28;20350;-25
2023/05/28 07:38:15;;;;;;;;;;;;;;;;;;5035648;28;19909;-27
2023/05/28 07:40:41;;;;;;;;;;;;;;;;;;5034876;28;19916;-27
2023/05/28 07:43:07;;;;;;;;;;;;;;;;;;5034214;28;19985;-23
2023/05/28 07:45:33;;;;;;;;;;;;;;;;;;5034958;28;19920;-28
2023/05/28 07:47:58;;;;;;;;;;;;;;;;;;5033787;28;20356;-25
2023/05/28 07:50:24;;;;;;;;;;;;;;;;;;5034708;28;19918;-26
2023/05/28 07:52:51;;;;;;;;;;;;;;;;;;5034726;28;19924;-24
2023/05/28 07:55:17;;;;;;;;;;;;;;;;;;5034808;28;20349;-24
2023/05/28 07:57:43;;;;;;;;;;;;;;;;;;5034794;28;19920;-22
2023/05/28 08:00:15;;;;;;;;;;;;;;;;;;5034650;28;20256;-27
2023/05/28 08:02:41;;;;;;;;;;;;;;;;;;5034817;28;19910;-26
2023/05/28 08:05:08;;;;;;;;;;;;;;;;;;5034303;28;19990;-27
2023/05/28 08:07:33;;;;;;;;;;;;;;;;;;5034562;28;19910;-27
2023/05/28 08:09:59;;;;;;;;;;;;;;;;;;5033572;28;19909;-25
2023/05/28 08:12:26;;;;;;;;;;;;;;;;;;5034510;28;20264;-28
2023/05/28 08:14:52;;;;;;;;;;;;;;;;;;5034541;28;19983;-25
2023/05/28 08:17:18;;;;;;;;;;;;;;;;;;5035229;28;20000;-30
2023/05/28 08:19:44;;;;;;;;;;;;;;;;;;5034694;28;19944;-23
2023/05/28 08:22:10;;;;;;;;;;;;;;;;;;5034378;28;19909;-28
2023/05/28 08:24:36;;;;;;;;;;;;;;;;;;5034299;28;20345;-28
2023/05/28 08:27:02;;;;;;;;;;;;;;;;;;5034386;28;19988;-27
2023/05/28 08:29:27;;;;;;;;;;;;;;;;;;5034353;28;19913;-25
2023/05/28 08:31:53;;;;;;;;;;;;;;;;;;5034272;28;19917;-25
2023/05/28 08:34:19;;;;;;;;;;;;;;;;;;5034325;28;19909;-24
2023/05/28 08:36:46;;;;;;;;;;;;;;;;;;5034339;28;19909;-31
2023/05/28 08:39:12;;;;;;;;;;;;;;;;;;5034295;28;19909;-25
2023/05/28 08:41:38;;;;;;;;;;;;;;;;;;5034336;28;20423;-26
2023/05/28 08:44:04;;;;;;;;;;;;;;;;;;5034171;28;19960;-23
2023/05/28 08:46:30;;;;;;;;;;;;;;;;;;5034494;28;19917;-26
2023/05/28 08:48:56;;;;;;;;;;;;;;;;;;5034239;28;19928;-23
2023/05/28 08:51:22;;;;;;;;;;;;;;;;;;5034188;28;19909;-24
2023/05/28 08:53:48;;;;;;;;;;;;;;;;;;5034109;28;19913;-24
2023/05/28 08:56:14;;;;;;;;;;;;;;;;;;5037080;28;19974;-25
2023/05/28 08:58:40;;;;;;;;;;;;;;;;;;5037840;28;20359;-24
2023/05/28 09:01:06;;;;;;;;;;;;;;;;;;5038025;28;19909;-24
2023/05/28 09:03:32;;;;;;;;;;;;;;;;;;5037607;28;19913;-25
2023/05/28 09:05:58;;;;;;;;;;;;;;;;;;5037562;28;20332;-23
2023/05/28 09:08:24;;;;;;;;;;;;;;;;;;5037890;28;19909;-28
2023/05/28 09:10:50;;;;;;;;;;;;;;;;;;5037941;28;20339;-30
2023/05/28 09:13:16;;;;;;;;;;;;;;;;;;5037726;28;19940;-26
2023/05/28 09:15:42;;;;;;;;;;;;;;;;;;5037555;28;19913;-27
2023/05/28 09:18:08;;;;;;;;;;;;;;;;;;5037731;28;19917;-24
2023/05/28 09:20:34;;;;;;;;;;;;;;;;;;5037690;28;19909;-22
2023/05/28 09:23:00;;;;;;;;;;;;;;;;;;5037564;28;19978;-25
2023/05/28 09:25:26;;;;;;;;;;;;;;;;;;5037283;28;20411;-23
2023/05/28 09:27:52;;;;;;;;;;;;;;;;;;5037600;28;19932;-24
2023/05/28 09:30:18;;;;;;;;;;;;;;;;;;5036339;28;19909;-26
2023/05/28 09:32:44;;;;;;;;;;;;;;;;;;5037165;28;19910;-25
2023/05/28 09:35:10;;;;;;;;;;;;;;;;;;5037138;28;19910;-25
2023/05/28 09:37:36;;;;;;;;;;;;;;;;;;5037170;28;20255;-24
2023/05/28 09:40:03;;;;;;;;;;;;;;;;;;5036062;28;19996;-30
2023/05/28 09:42:30;;;;;;;;;;;;;;;;;;5037192;28;20278;-23
2023/05/28 09:44:56;;;;;;;;;;;;;;;;;;5036914;28;19936;-28
2023/05/28 09:47:22;;;;;;;;;;;;;;;;;;5037196;28;20289;-27
2023/05/28 09:49:49;;;;;;;;;;;;;;;;;;5036887;28;19913;-27
2023/05/28 09:52:15;;;;;;;;;;;;;;;;;;5037068;28;19992;-32
2023/05/28 09:54:41;;;;;;;;;;;;;;;;;;5036819;28;19941;-24
2023/05/28 09:57:07;;;;;;;;;;;;;;;;;;5036754;28;19935;-24
2023/05/28 09:59:33;;;;;;;;;;;;;;;;;;5036668;28;19909;-27
2023/05/28 10:01:59;;;;;;;;;;;;;;;;;;5036640;28;19917;-28
2023/05/28 10:04:25;;;;;;;;;;;;;;;;;;5036384;28;19936;-27
2023/05/28 10:06:51;;;;;;;;;;;;;;;;;;5035599;28;19905;-24
2023/05/28 10:09:17;;;;;;;;;;;;;;;;;;5036595;28;20003;-25
2023/05/28 10:11:43;;;;;;;;;;;;;;;;;;5036481;28;20244;-23
2023/05/28 10:14:09;;;;;;;;;;;;;;;;;;5036594;28;19913;-26
2023/05/28 10:16:35;;;;;;;;;;;;;;;;;;5036655;28;19984;-25
2023/05/28 10:19:01;;;;;;;;;;;;;;;;;;5036306;28;20348;-27
2023/05/28 10:21:27;;;;;;;;;;;;;;;;;;5036597;28;20389;-28
2023/05/28 10:23:53;;;;;;;;;;;;;;;;;;5036095;28;19963;-23
2023/05/28 10:26:19;;;;;;;;;;;;;;;;;;5036230;28;19915;-25
2023/05/28 10:28:45;;;;;;;;;;;;;;;;;;5036450;28;20225;-25
2023/05/28 10:31:11;;;;;;;;;;;;;;;;;;5036131;28;20294;-24
2023/05/28 10:33:37;;;;;;;;;;;;;;;;;;5036251;28;19909;-26
2023/05/28 10:36:03;;;;;;;;;;;;;;;;;;5036029;28;20232;-24
2023/05/28 10:38:29;;;;;;;;;;;;;;;;;;5036199;28;20236;-26
2023/05/28 10:40:55;;;;;;;;;;;;;;;;;;5035965;28;20360;-29
2023/05/28 10:43:21;;;;;;;;;;;;;;;;;;5036090;28;19910;-23
2023/05/28 10:45:47;;;;;;;;;;;;;;;;;;5035813;28;20256;-25
2023/05/28 10:48:13;;;;;;;;;;;;;;;;;;5035834;28;20387;-26
2023/05/28 10:50:38;;;;;;;;;;;;;;;;;;5035736;28;19971;-28
2023/05/28 10:53:05;;;;;;;;;;;;;;;;;;5035826;28;19916;-25
2023/05/28 10:55:31;;;;;;;;;;;;;;;;;;5035625;28;19909;-28
2023/05/28 10:57:57;;;;;;;;;;;;;;;;;;5035816;28;20013;-25
2023/05/28 11:00:23;;;;;;;;;;;;;;;;;;5035575;28;19928;-23
2023/05/28 11:02:49;;;;;;;;;;;;;;;;;;5035713;28;19913;-26
2023/05/28 11:05:15;;;;;;;;;;;;;;;;;;5035231;28;20019;-27
2023/05/28 11:07:41;;;;;;;;;;;;;;;;;;5035970;28;20005;-26
2023/05/28 11:10:08;;;;;;;;;;;;;;;;;;5035356;28;19913;-25
2023/05/28 11:12:34;;;;;;;;;;;;;;;;;;5035574;28;19913;-27
2023/05/28 11:15:00;;;;;;;;;;;;;;;;;;5035325;28;19909;-27
2023/05/28 11:17:26;;;;;;;;;;;;;;;;;;5036113;28;19958;-26
2023/05/28 11:19:53;;;;;;;;;;;;;;;;;;5035105;28;19920;-26
2023/05/28 11:22:19;;;;;;;;;;;;;;;;;;5035470;28;19910;-25
2023/05/28 11:24:45;;;;;;;;;;;;;;;;;;5035024;28;19913;-23
2023/05/28 11:27:11;;;;;;;;;;;;;;;;;;5034064;28;19959;-25
2023/05/28 11:29:38;;;;;;;;;;;;;;;;;;5034973;28;19928;-24
2023/05/28 11:32:04;;;;;;;;;;;;;;;;;;5033930;28;19920;-25
2023/05/28 11:34:30;;;;;;;;;;;;;;;;;;5035061;28;19919;-24
2023/05/28 11:36:56;;;;;;;;;;;;;;;;;;5034957;28;19909;-27
2023/05/28 11:39:22;;;;;;;;;;;;;;;;;;5033953;28;19963;-23
2023/05/28 11:41:48;;;;;;;;;;;;;;;;;;5034896;28;19917;-26
2023/05/28 11:44:14;;;;;;;;;;;;;;;;;;5034793;28;19964;-29
2023/05/28 11:46:40;;;;;;;;;;;;;;;;;;5035076;28;19921;-24
2023/05/28 11:49:06;;;;;;;;;;;;;;;;;;5035026;28;20332;-27
2023/05/28 11:51:32;;;;;;;;;;;;;;;;;;5035020;28;20352;-26
2023/05/28 11:53:57;;;;;;;;;;;;;;;;;;5034708;28;19912;-23
2023/05/28 11:56:23;;;;;;;;;;;;;;;;;;5034747;28;19909;-24
2023/05/28 11:58:50;;;;;;;;;;;;;;;;;;5034594;28;19917;-26
2023/05/28 12:01:17;;;;;;;;;;;;;;;;;;5034689;28;19909;-23
2023/05/28 12:03:43;;;;;;;;;;;;;;;;;;5034542;28;20348;-27
2023/05/28 12:06:09;;;;;;;;;;;;;;;;;;5034402;28;19995;-25
2023/05/28 12:08:35;;;;;;;;;;;;;;;;;;5034890;28;19909;-27
2023/05/28 12:11:03;;;;;;;;;;;;;;;;;;5033812;28;21287;-26
2023/05/28 12:13:29;;;;;;;;;;;;;;;;;;5034507;28;19909;-27
2023/05/28 12:15:55;;;;;;;;;;;;;;;;;;5035271;28;19912;-25
2023/05/28 12:18:21;;;;;;;;;;;;;;;;;;5034482;28;19909;-25
2023/05/28 12:20:47;;;;;;;;;;;;;;;;;;5034471;28;19927;-26
2023/05/28 12:23:13;;;;;;;;;;;;;;;;;;5034417;28;20008;-24
2023/05/28 12:25:39;;;;;;;;;;;;;;;;;;5033384;28;19913;-26
2023/05/28 12:28:05;;;;;;;;;;;;;;;;;;5034492;28;19995;-25
2023/05/28 12:30:31;;;;;;;;;;;;;;;;;;5036197;28;20002;-28
2023/05/28 12:32:57;;;;;;;;;;;;;;;;;;5038293;28;19969;-25
2023/05/28 12:35:23;;;;;;;;;;;;;;;;;;5038319;28;19909;-23
2023/05/28 12:37:49;;;;;;;;;;;;;;;;;;5037312;28;19913;-25
2023/05/28 12:40:15;;;;;;;;;;;;;;;;;;5037262;28;19909;-27
2023/05/28 12:42:41;;;;;;;;;;;;;;;;;;5038271;28;19920;-30
2023/05/28 12:45:07;;;;;;;;;;;;;;;;;;5037998;28;19920;-26
2023/05/28 12:47:33;;;;;;;;;;;;;;;;;;5038044;28;19909;-26
2023/05/28 12:49:59;;;;;;;;;;;;;;;;;;5038004;28;19944;-24
2023/05/28 12:52:25;;;;;;;;;;;;;;;;;;5037911;28;19909;-23
2023/05/28 12:54:51;;;;;;;;;;;;;;;;;;5038166;28;19909;-26
2023/05/28 12:57:18;;;;;;;;;;;;;;;;;;5038146;28;20336;-22
2023/05/28 12:59:44;;;;;;;;;;;;;;;;;;5038176;28;19984;-25
2023/05/28 13:02:10;;;;;;;;;;;;;;;;;;5038035;28;19923;-23
2023/05/28 13:04:35;;;;;;;;;;;;;;;;;;5037495;28;20412;-23
2023/05/28 13:07:01;;;;;;;;;;;;;;;;;;5037772;28;20359;-23
2023/05/28 13:09:27;;;;;;;;;;;;;;;;;;5037719;28;19913;-24
2023/05/28 13:11:53;;;;;;;;;;;;;;;;;;5036600;28;19920;-27
2023/05/28 13:14:19;;;;;;;;;;;;;;;;;;5037835;28;19916;-24
2023/05/28 13:16:45;;;;;;;;;;;;;;;;;;5037580;28;19917;-27
2023/05/28 13:19:11;;;;;;;;;;;;;;;;;;5037483;28;19935;-25
2023/05/28 13:21:37;;;;;;;;;;;;;;;;;;5037390;28;19909;-24
2023/05/28 13:24:03;;;;;;;;;;;;;;;;;;5037549;28;19913;-23
2023/05/28 13:26:29;;;;;;;;;;;;;;;;;;5037602;28;19944;-23
2023/05/28 13:28:55;;;;;;;;;;;;;;;;;;5037544;28;20332;-24
2023/05/28 13:31:21;;;;;;;;;;;;;;;;;;5037252;28;19909;-28
2023/05/28 13:33:47;;;;;;;;;;;;;;;;;;5037200;28;19948;-29
2023/05/28 13:36:13;;;;;;;;;;;;;;;;;;5037101;28;19975;-26
2023/05/28 13:38:39;;;;;;;;;;;;;;;;;;5037375;28;20007;-25
2023/05/28 13:41:05;;;;;;;;;;;;;;;;;;5037289;28;19921;-25
2023/05/28 13:43:31;;;;;;;;;;;;;;;;;;5037043;28;19909;-23
2023/05/28 13:45:58;;;;;;;;;;;;;;;;;;5036917;28;19913;-27
2023/05/28 13:48:24;;;;;;;;;;;;;;;;;;5036966;28;19920;-28
2023/05/28 13:50:50;;;;;;;;;;;;;;;;;;5036944;28;20268;-26
2023/05/28 13:53:16;;;;;;;;;;;;;;;;;;5036806;28;19913;-27
2023/05/28 13:55:42;;;;;;;;;;;;;;;;;;5036832;28;19909;-28
2023/05/28 13:58:08;;;;;;;;;;;;;;;;;;5037067;28;19921;-27
2023/05/28 14:00:34;;;;;;;;;;;;;;;;;;5036736;28;19920;-27
2023/05/28 14:03:00;;;;;;;;;;;;;;;;;;5036586;28;19916;-29
2023/05/28 14:05:26;;;;;;;;;;;;;;;;;;5036510;28;20236;-24
2023/05/28 14:07:52;;;;;;;;;;;;;;;;;;5036616;28;20282;-23
2023/05/28 14:10:18;;;;;;;;;;;;;;;;;;5036833;28;19924;-25
2023/05/28 14:12:43;;;;;;;;;;;;;;;;;;5036625;28;19909;-26
2023/05/28 14:15:09;;;;;;;;;;;;;;;;;;5036739;28;19973;-24
2023/05/28 14:17:35;;;;;;;;;;;;;;;;;;5036388;28;19935;-25
2023/05/28 14:20:04;;;;;;;;;;;;;;;;;;5036418;28;19909;-26
2023/05/28 14:22:30;;;;;;;;;;;;;;;;;;5036266;28;19913;-24
2023/05/28 14:24:56;;;;;;;;;;;;;;;;;;5036217;28;19923;-28
2023/05/28 14:27:22;;;;;;;;;;;;;;;;;;5036182;28;19944;-25
2023/05/28 14:29:48;;;;;;;;;;;;;;;;;;5036458;28;19913;-26
2023/05/28 14:32:14;;;;;;;;;;;;;;;;;;5036080;28;19916;-27
2023/05/28 14:34:40;;;;;;;;;;;;;;;;;;5035148;28;20006;-23
2023/05/28 14:37:06;;;;;;;;;;;;;;;;;;5035059;28;19909;-23
2023/05/28 14:39:32;;;;;;;;;;;;;;;;;;5035966;28;19910;-27
2023/05/28 14:41:58;;;;;;;;;;;;;;;;;;5036068;28;19917;-23
2023/05/28 14:44:24;;;;;;;;;;;;;;;;;;5035842;28;19921;-25
2023/05/28 14:46:50;;;;;;;;;;;;;;;;;;5035912;28;19909;-27
2023/05/28 14:49:16;;;;;;;;;;;;;;;;;;5036063;28;19909;-25
2023/05/28 14:51:42;;;;;;;;;;;;;;;;;;5035773;28;19952;-26
2023/05/28 14:54:08;;;;;;;;;;;;;;;;;;5035192;28;19963;-25
2023/05/28 14:56:34;;;;;;;;;;;;;;;;;;5035932;28;19913;-26
2023/05/28 14:59:00;;;;;;;;;;;;;;;;;;5035671;28;19967;-25
2023/05/28 15:01:26;;;;;;;;;;;;;;;;;;5035872;28;20336;-27
2023/05/28 15:03:53;;;;;;;;;;;;;;;;;;5035629;28;19959;-24
2023/05/28 15:06:19;;;;;;;;;;;;;;;;;;5036082;28;19928;-28
2023/05/28 15:08:45;;;;;;;;;;;;;;;;;;5035395;28;19909;-24
2023/05/28 15:11:11;;;;;;;;;;;;;;;;;;5035673;28;19910;-26
2023/05/28 15:13:36;;;;;;;;;;;;;;;;;;5035285;28;20018;-26
2023/05/28 15:16:03;;;;;;;;;;;;;;;;;;5035515;28;19916;-30
2023/05/28 15:18:29;;;;;;;;;;;;;;;;;;5035326;28;20036;-22
2023/05/28 15:20:55;;;;;;;;;;;;;;;;;;5035514;28;20256;-27
2023/05/28 15:23:21;;;;;;;;;;;;;;;;;;5035130;28;19909;-27
2023/05/28 15:25:46;;;;;;;;;;;;;;;;;;5035085;28;19953;-25
2023/05/28 15:28:12;;;;;;;;;;;;;;;;;;5035061;28;19909;-27
2023/05/28 15:30:38;;;;;;;;;;;;;;;;;;5035364;28;20043;-26
2023/05/28 15:33:04;;;;;;;;;;;;;;;;;;5034946;28;20024;-35
2023/05/28 15:35:30;;;;;;;;;;;;;;;;;;5034995;28;19920;-24
2023/05/28 15:37:56;;;;;;;;;;;;;;;;;;5034962;28;19999;-26
2023/05/28 15:40:22;;;;;;;;;;;;;;;;;;5034976;28;19967;-28
2023/05/28 15:42:48;;;;;;;;;;;;;;;;;;5035109;28;19992;-30
2023/05/28 15:45:14;;;;;;;;;;;;;;;;;;5035079;28;20406;-29
2023/05/28 15:47:40;;;;;;;;;;;;;;;;;;5035111;28;19909;-25
2023/05/28 15:50:06;;;;;;;;;;;;;;;;;;5035074;28;19916;-27
2023/05/28 15:52:32;;;;;;;;;;;;;;;;;;5034757;28;19921;-23
2023/05/28 15:54:58;;;;;;;;;;;;;;;;;;5034968;28;19924;-24
2023/05/28 15:57:24;;;;;;;;;;;;;;;;;;5035004;28;19909;-27
2023/05/28 15:59:50;;;;;;;;;;;;;;;;;;5034711;28;20003;-26
2023/05/28 16:02:16;;;;;;;;;;;;;;;;;;5034661;28;20004;-24
2023/05/28 16:04:42;;;;;;;;;;;;;;;;;;5033539;28;20067;-25
2023/05/28 16:07:08;;;;;;;;;;;;;;;;;;5034672;28;19913;-27
2023/05/28 16:09:34;;;;;;;;;;;;;;;;;;5034670;28;19935;-26
2023/05/28 16:12:00;;;;;;;;;;;;;;;;;;5034834;28;20373;-26
2023/05/28 16:14:25;;;;;;;;;;;;;;;;;;5034523;28;19932;-25
2023/05/28 16:16:52;;;;;;;;;;;;;;;;;;5034843;28;19909;-24
2023/05/28 16:19:17;;;;;;;;;;;;;;;;;;5034535;28;19936;-28
2023/05/28 16:21:44;;;;;;;;;;;;;;;;;;5034490;28;19910;-24
2023/05/28 16:24:10;;;;;;;;;;;;;;;;;;5034383;28;19919;-23
2023/05/28 16:26:36;;;;;;;;;;;;;;;;;;5034529;28;19909;-26
2023/05/28 16:29:03;;;;;;;;;;;;;;;;;;5034465;28;19924;-23
2023/05/28 16:31:29;;;;;;;;;;;;;;;;;;5034717;28;20225;-27
2023/05/28 16:33:54;;;;;;;;;;;;;;;;;;5034225;28;19916;-24
2023/05/28 16:36:21;;;;;;;;;;;;;;;;;;5034313;28;19917;-26